Arlington, KS

7:35 PM CDT on July 28, 2014 (GMT -0500)
KKSHUTCH9 Elev 1549 ft | 38.08 °N, 97.92 °W | Change Station

Current weather conditions updated 2 seconds ago

Clear
Clear
90.0 °F
Feels Like 89 °F
N
0.7
Wind Variable Wind from East
Gusts 3.8 mph

Tomorrow is forecast to be Much Cooler than today. A few showers developing late tomorrow night.

Today
High -- | Low -- °F
--% Chance of Precip.
Yesterday
High -- | Low -- °F
Precip. -- in
6:32 AM 8:45 PM
Waxing Crescent, 4% visible
Pressure 30.10 in
Visibility 10.0 miles
Clouds Clear
Heat Index 89 °F
Dew Point 60 °F
Humidity 36%
Rainfall 0.00 in
Snow Depth Not available.
UV 2 out of 12
Pollen 6.70 out of 12
Air Quality Not available.
Flu Activity Not available.
METAR KHUT 282352Z 05003KT 10SM CLR 29/14 A3016 RMK AO2 SLP193 T02940144 10311 20272 58019

More Conditions Fewer Conditions

Pressure 30.10 in
Visibility 10.0 miles
Clouds Clear
Heat Index 89 °F
Dew Point 60 °F
Humidity 36%
Rainfall 0.00 in
Snow Depth Not available.
UV 2 out of 12
Pollen 6.70 out of 12
Air Quality Not available.
Flu Activity Not available.
METAR KHUT 282352Z 05003KT 10SM CLR 29/14 A3016 RMK AO2 SLP193 T02940144 10311 20272 58019

More Conditions Fewer Conditions

10-Day Weather Forecast

Almanac

Astronomy

Jul. 28, 2014 Rise Set
Actual Time 6:32 AM CDT 8:45 PM CDT
Civil Twilight 6:03 AM CDT 9:14 PM CDT
Nautical Twilight 5:27 AM CDT 9:50 PM CDT
Astronomical Twilight 4:47 AM CDT 10:30 PM CDT
Moon 8:12 AM CDT (7/28) 9:30 PM CDT (7/28)
Length of Visible Light 15h 11m
Length of Day
14h 12m
Tomorrow will be 1m 44s shorter.
Waxing Crescent, 4% of the Moon is Illuminated
Today
Waxing Crescent
Aug 3
First Quarter
Aug 10
Full
Aug 17
Last Quarter
Aug 25
New

Today's Extremes

State Highs State Lows

Community

WunderPhotos

Upload Photos

1,738,562 photos uploaded!

WunderBlogs® & News

Nearby

Snow Depth

Station Depth Elevation
No new snow has been reported.

Earthquake Activity

City Distance Mag. Time & Date
Langston, Oklahoma 145 miles 3.3 9:02 PM CDT
2014-07-22
Helena, Oklahoma 84 miles 2.6 12:50 PM CDT
2014-07-22
Minimum magnitude displayed is 2.5.

Coastal Water Temperatures

Place Temperature
No Stations Reporting

Nearby Weather Stations

Station Location Temp. Heat Index Dew Point Humidity Wind Precip. Elev Updated Type
MesoWest PRTRGE , Partridge, KS 88 °F 85 °F - - North  at  - 0.00 in / hr 1623 ft 4:35 PM CDT MADIS
MesoWest TURON , Langdon, KS 88 °F 85 °F - - North  at  - 0.00 in / hr 1709 ft 6:30 PM CDT MADIS
Hutchinson, KS 90.0 °F 89 °F 60 °F 36% East  at  0.7 mph 0.00 in / hr 1549 ft 7:35 PM CDT Rapid Fire
MesoWest SLADE , 83 °F 81 °F - - North  at  - 0.00 in / hr 1605 ft 7:00 PM EDT MADIS
RAWS STAFFORD KS, Hudson, KS 86 °F 85 °F 57 °F 38% NW  at  1 mph 0.00 in / hr 1768 ft 6:59 PM CDT MADIS
MesoWest PRESTN , Pratt, KS 87 °F 84 °F - - North  at  - 0.00 in / hr 1878 ft 6:15 PM CDT MADIS

Show More Stations Show Fewer Stations